createdAt,value
2023-03-06T00:01:01.391Z,63.52
2023-03-06T00:04:04.055Z,63.34
2023-03-06T00:07:06.591Z,63.14
2023-03-06T00:10:13.908Z,63.08
2023-03-06T00:13:19.322Z,63.22
2023-03-06T00:16:21.892Z,62.69
2023-03-06T00:19:24.580Z,63.05
2023-03-06T00:22:27.112Z,63.01
2023-03-06T00:25:29.571Z,63.14
2023-03-06T00:28:32.691Z,63.57
2023-03-06T00:31:36.153Z,63.12
2023-03-06T00:34:39.165Z,63.49
2023-03-06T00:37:42.293Z,63.30
2023-03-06T00:40:44.880Z,63.60
2023-03-06T00:43:47.464Z,63.49
2023-03-06T00:46:49.969Z,63.69
2023-03-06T00:49:52.477Z,65.09
2023-03-06T00:52:55.983Z,65.01
2023-03-06T00:56:00.555Z,63.21
2023-03-06T00:59:03.030Z,65.13
2023-03-06T01:02:06.118Z,63.86
2023-03-06T01:05:09.561Z,64.59
2023-03-06T01:08:13.333Z,65.43
2023-03-06T01:11:15.864Z,65.86
2023-03-06T01:14:19.772Z,66.41
2023-03-06T01:17:22.298Z,67.14
2023-03-06T01:20:25.015Z,67.02
2023-03-06T01:23:27.672Z,67.38
2023-03-06T01:26:31.776Z,67.36
2023-03-06T01:29:34.279Z,67.40
2023-03-06T01:32:36.832Z,67.30
2023-03-06T01:35:39.626Z,66.84
2023-03-06T01:38:42.573Z,67.35
2023-03-06T01:41:45.826Z,67.19
2023-03-06T01:45:06.437Z,66.80
2023-03-06T01:48:10.597Z,66.53
2023-03-06T01:51:13.140Z,66.62
2023-03-06T01:54:32.550Z,66.27
2023-03-06T01:57:42.808Z,66.98
2023-03-06T02:00:45.793Z,67.06
2023-03-06T02:03:52.337Z,67.16
2023-03-06T02:06:55.740Z,67.26
2023-03-06T02:09:58.964Z,67.38
2023-03-06T02:13:01.921Z,67.25
2023-03-06T02:16:04.791Z,67.25
2023-03-06T02:19:14.246Z,66.90
2023-03-06T02:22:17.385Z,66.77
2023-03-06T02:25:31.684Z,66.66
2023-03-06T02:28:35.050Z,66.62
2023-03-06T02:31:37.979Z,66.37
2023-03-06T02:34:40.437Z,65.99
2023-03-06T02:37:43.541Z,66.56
2023-03-06T02:40:49.790Z,65.91
2023-03-06T02:43:53.265Z,65.71
2023-03-06T02:46:55.924Z,65.85
2023-03-06T02:49:58.577Z,66.76
2023-03-06T02:53:01.164Z,66.67
2023-03-06T02:56:06.752Z,66.34
2023-03-06T02:59:09.295Z,66.54
2023-03-06T03:02:12.215Z,67.49
2023-03-06T03:05:14.808Z,66.32
2023-03-06T03:08:20.001Z,66.10
2023-03-06T03:11:24.414Z,66.08
2023-03-06T03:14:27.594Z,66.00
2023-03-06T03:17:30.085Z,66.22
2023-03-06T03:20:32.722Z,66.74
2023-03-06T03:23:35.324Z,67.54
2023-03-06T03:26:37.923Z,67.29
2023-03-06T03:29:50.028Z,66.77
2023-03-06T03:32:52.860Z,67.13
2023-03-06T03:36:01.399Z,67.90
2023-03-06T03:39:05.306Z,67.42
2023-03-06T03:42:09.029Z,67.31
2023-03-06T03:45:12.332Z,67.57
2023-03-06T03:48:16.284Z,67.38
2023-03-06T03:51:19.958Z,67.17
2023-03-06T03:54:26.966Z,67.31
2023-03-06T03:57:30.634Z,67.43
2023-03-06T04:00:34.351Z,66.91
2023-03-06T04:03:45.181Z,67.27
2023-03-06T04:06:49.462Z,67.56
2023-03-06T04:09:53.825Z,66.80
2023-03-06T04:12:56.555Z,67.52
2023-03-06T04:15:59.798Z,68.09
2023-03-06T04:19:04.318Z,67.94
2023-03-06T04:22:07.443Z,67.80
2023-03-06T04:25:12.804Z,68.46
2023-03-06T04:28:16.281Z,69.09
2023-03-06T04:31:19.777Z,69.39
2023-03-06T04:34:22.531Z,69.63
2023-03-06T04:37:26.166Z,65.88
2023-03-06T04:40:33.568Z,65.00
2023-03-06T04:43:36.098Z,63.95
2023-03-06T04:46:38.730Z,64.19
2023-03-06T04:49:41.302Z,63.97
2023-03-06T04:52:44.054Z,63.81
2023-03-06T04:55:46.606Z,64.23
2023-03-06T04:58:52.129Z,64.55
2023-03-06T05:01:55.454Z,65.19
2023-03-06T05:04:58.076Z,65.62
2023-03-06T05:08:00.557Z,64.96
2023-03-06T05:11:03.847Z,67.36
2023-03-06T05:14:06.600Z,67.58
2023-03-06T05:17:09.295Z,70.38
2023-03-06T05:20:12.770Z,67.00
2023-03-06T05:23:15.394Z,70.72
2023-03-06T05:26:17.843Z,72.81
2023-03-06T05:29:20.800Z,73.55
2023-03-06T05:32:23.713Z,74.02
2023-03-06T05:35:26.770Z,73.78
2023-03-06T05:38:29.544Z,74.01
2023-03-06T05:41:32.553Z,74.03
2023-03-06T05:44:35.943Z,76.01
2023-03-06T05:47:38.585Z,75.92
2023-03-06T05:50:41.050Z,75.84
2023-03-06T05:53:43.790Z,76.28
2023-03-06T05:56:46.248Z,75.55
2023-03-06T05:59:50.209Z,74.79
2023-03-06T06:02:52.953Z,75.35
2023-03-06T06:05:55.490Z,74.88
2023-03-06T06:08:58.210Z,76.17
2023-03-06T06:12:03.711Z,76.44
2023-03-06T06:15:07.269Z,76.93
2023-03-06T06:18:09.766Z,77.57
2023-03-06T06:21:14.748Z,77.28
2023-03-06T06:24:19.576Z,77.03
2023-03-06T06:27:22.593Z,77.20
2023-03-06T06:30:25.639Z,78.26
2023-03-06T06:33:28.151Z,78.75
2023-03-06T06:36:30.720Z,78.38
2023-03-06T06:39:33.236Z,77.67
2023-03-06T06:42:39.839Z,77.40
2023-03-06T06:45:44.242Z,77.58
2023-03-06T06:48:54.730Z,77.92
2023-03-06T06:51:57.653Z,78.08
2023-03-06T06:55:00.320Z,78.10
2023-03-06T06:58:02.896Z,78.32
2023-03-06T07:01:08.921Z,78.36
2023-03-06T07:04:13.355Z,77.88
2023-03-06T07:07:16.653Z,77.07
2023-03-06T07:10:20.947Z,77.79
2023-03-06T07:13:25.304Z,77.11
2023-03-06T07:16:31.479Z,76.55
2023-03-06T07:19:34.782Z,75.69
2023-03-06T07:22:50.363Z,75.81
2023-03-06T07:25:55.495Z,75.64
2023-03-06T07:28:58.966Z,75.88
2023-03-06T07:32:02.640Z,74.65
2023-03-06T07:35:22.456Z,75.40
2023-03-06T07:38:25.839Z,75.10
2023-03-06T07:41:28.857Z,74.76
2023-03-06T07:44:40.526Z,74.17
2023-03-06T07:47:51.035Z,74.22
2023-03-06T07:51:05.813Z,74.72
2023-03-06T07:54:08.556Z,73.75
2023-03-06T07:57:11.149Z,74.53
2023-03-06T08:00:16.119Z,72.50
2023-03-06T08:03:18.709Z,72.55
2023-03-06T08:06:27.679Z,72.35
2023-03-06T08:09:31.045Z,73.44
2023-03-06T08:12:33.720Z,74.55
2023-03-06T08:15:36.450Z,73.58
2023-03-06T08:18:44.964Z,72.98
2023-03-06T08:21:48.432Z,73.29
2023-03-06T08:24:54.974Z,73.38
2023-03-06T08:27:57.541Z,73.62
2023-03-06T08:31:10.038Z,72.65
2023-03-06T08:34:16.203Z,72.73
2023-03-06T08:37:18.815Z,73.00
2023-03-06T08:40:24.377Z,72.75
2023-03-06T08:43:28.680Z,73.33
2023-03-06T08:46:32.440Z,72.57
2023-03-06T08:49:36.102Z,72.72
2023-03-06T08:52:38.871Z,72.31
2023-03-06T08:55:41.400Z,73.17
2023-03-06T08:58:44.280Z,73.41
2023-03-06T09:01:46.948Z,73.79
2023-03-06T09:04:49.829Z,73.53
2023-03-06T09:07:53.549Z,73.21
2023-03-06T09:10:56.131Z,71.80
2023-03-06T09:13:59.355Z,71.60
2023-03-06T09:17:02.009Z,72.98
2023-03-06T09:20:06.337Z,71.95
2023-03-06T09:23:09.731Z,70.00
2023-03-06T09:26:12.806Z,68.35
2023-03-06T09:29:17.209Z,68.35
2023-03-06T09:32:24.804Z,69.49
2023-03-06T09:35:28.036Z,68.20
2023-03-06T09:38:30.982Z,67.51
2023-03-06T09:41:36.946Z,68.78
2023-03-06T09:44:41.258Z,68.69
2023-03-06T09:48:01.987Z,68.08
2023-03-06T09:51:36.284Z,66.27
2023-03-06T09:54:56.034Z,66.39
2023-03-06T09:58:21.943Z,65.88
2023-03-06T10:01:33.070Z,64.71
2023-03-06T10:04:44.168Z,66.38
2023-03-06T10:08:01.454Z,65.07
2023-03-06T10:11:09.965Z,65.66
2023-03-06T10:14:32.998Z,66.64
2023-03-06T10:17:38.683Z,66.70
2023-03-06T10:20:47.529Z,66.51
2023-03-06T10:23:58.683Z,66.63
2023-03-06T10:27:23.599Z,67.27
2023-03-06T10:30:38.482Z,64.41
2023-03-06T10:33:55.638Z,65.95
2023-03-06T10:37:02.568Z,65.12
2023-03-06T10:40:16.941Z,65.50
2023-03-06T10:43:19.593Z,64.53
2023-03-06T10:46:31.196Z,66.12
2023-03-06T10:49:36.836Z,64.55
2023-03-06T10:52:41.838Z,65.51
2023-03-06T10:55:52.367Z,66.01
2023-03-06T10:59:29.427Z,66.15
2023-03-06T11:02:39.599Z,66.12
2023-03-06T11:06:04.611Z,64.30
2023-03-06T11:09:20.257Z,67.27
2023-03-06T11:12:27.869Z,67.36
2023-03-06T11:15:33.068Z,68.15
2023-03-06T11:18:38.132Z,65.62
2023-03-06T11:21:40.700Z,65.26
2023-03-06T11:24:54.330Z,64.59
2023-03-06T11:28:08.264Z,65.51
2023-03-06T11:31:22.749Z,60.86
2023-03-06T11:34:41.965Z,61.56
2023-03-06T11:37:59.922Z,61.36
2023-03-06T11:41:14.093Z,62.73
2023-03-06T11:44:25.857Z,62.61
2023-03-06T11:47:42.704Z,64.01
2023-03-06T11:50:53.578Z,65.18
2023-03-06T11:54:00.935Z,65.27
2023-03-06T11:57:17.374Z,64.87
2023-03-06T12:00:50.450Z,65.92
2023-03-06T12:04:07.187Z,65.32
2023-03-06T12:07:31.412Z,65.07
2023-03-06T12:11:12.510Z,64.50
2023-03-06T12:14:50.393Z,65.75
2023-03-06T12:18:30.527Z,64.50
2023-03-06T12:21:57.738Z,67.28
2023-03-06T12:25:19.407Z,66.73
2023-03-06T12:28:54.394Z,66.54
2023-03-06T12:32:16.041Z,67.33
2023-03-06T12:35:59.059Z,68.65
2023-03-06T12:39:40.728Z,69.84
2023-03-06T12:43:02.163Z,70.00
2023-03-06T12:46:17.887Z,69.23
2023-03-06T12:49:31.844Z,69.51
2023-03-06T12:52:37.609Z,68.95
2023-03-06T12:55:44.308Z,68.63
2023-03-06T12:58:52.005Z,68.80
2023-03-06T13:02:35.452Z,68.31
2023-03-06T13:05:53.172Z,69.21
2023-03-06T13:09:17.266Z,68.58
2023-03-06T13:12:42.081Z,67.67
2023-03-06T13:15:47.114Z,67.09
2023-03-06T13:18:55.066Z,67.47
2023-03-06T13:21:57.963Z,68.06
2023-03-06T13:25:18.560Z,68.09
2023-03-06T13:28:45.707Z,67.62
2023-03-06T13:31:54.759Z,68.29
2023-03-06T13:34:57.663Z,67.52
2023-03-06T13:38:00.648Z,68.00
2023-03-06T13:41:25.170Z,67.30
2023-03-06T13:44:28.624Z,66.80
2023-03-06T13:48:22.631Z,67.07
2023-03-06T13:51:31.064Z,67.51
2023-03-06T13:55:11.158Z,68.46
2023-03-06T13:58:29.225Z,67.90
2023-03-06T14:01:43.691Z,67.27
2023-03-06T14:04:53.639Z,68.15
2023-03-06T14:08:32.008Z,68.10
2023-03-06T14:11:36.845Z,67.76
2023-03-06T14:14:44.231Z,69.11
2023-03-06T14:18:18.038Z,68.14
2023-03-06T14:21:54.830Z,68.58
2023-03-06T14:25:04.044Z,68.41
2023-03-06T14:28:14.052Z,68.61
2023-03-06T14:31:20.496Z,68.51
2023-03-06T14:34:28.697Z,68.41
2023-03-06T14:37:34.590Z,68.22
2023-03-06T14:40:43.959Z,68.38
2023-03-06T14:43:46.890Z,68.71
2023-03-06T14:46:55.305Z,68.01
2023-03-06T14:50:27.142Z,67.86
2023-03-06T14:53:34.036Z,67.05
2023-03-06T14:56:46.087Z,67.64
2023-03-06T14:59:48.546Z,67.45
2023-03-06T15:02:54.075Z,66.56
2023-03-06T15:05:57.277Z,67.02
2023-03-06T15:09:07.479Z,67.14
2023-03-06T15:12:23.698Z,68.17
2023-03-06T15:15:30.659Z,68.00
2023-03-06T15:18:40.657Z,67.73
2023-03-06T15:21:48.054Z,67.92
2023-03-06T15:24:51.538Z,67.88
2023-03-06T15:28:03.046Z,68.23
2023-03-06T15:31:23.565Z,68.03
2023-03-06T15:34:27.650Z,67.68
2023-03-06T15:37:30.105Z,67.76
2023-03-06T15:40:33.429Z,67.73
2023-03-06T15:43:39.703Z,68.34
2023-03-06T15:46:42.478Z,68.92
2023-03-06T15:49:45.028Z,68.51
2023-03-06T15:52:48.809Z,69.10
2023-03-06T15:55:52.667Z,68.79
2023-03-06T15:58:57.536Z,69.10
2023-03-06T16:02:04.325Z,69.24
2023-03-06T16:05:15.556Z,68.95
2023-03-06T16:08:18.031Z,69.72
2023-03-06T16:11:41.919Z,69.84
2023-03-06T16:14:47.908Z,69.93
2023-03-06T16:17:50.433Z,69.28
2023-03-06T16:20:53.099Z,70.39
2023-03-06T16:23:56.154Z,70.18
2023-03-06T16:27:00.633Z,70.07
2023-03-06T16:30:04.695Z,69.46
2023-03-06T16:33:11.328Z,69.75
2023-03-06T16:36:22.578Z,70.17
2023-03-06T16:39:25.110Z,70.22
2023-03-06T16:42:27.956Z,69.75
2023-03-06T16:45:30.874Z,69.73
2023-03-06T16:48:34.648Z,69.73
2023-03-06T16:51:39.897Z,70.00
2023-03-06T16:54:44.599Z,70.65
2023-03-06T16:57:47.562Z,70.74
2023-03-06T17:00:50.690Z,70.42
2023-03-06T17:03:53.571Z,71.21
2023-03-06T17:06:56.229Z,71.02
2023-03-06T17:09:59.024Z,71.19
2023-03-06T17:13:02.904Z,72.04
2023-03-06T17:16:06.462Z,71.39
2023-03-06T17:19:15.210Z,71.47
2023-03-06T17:22:19.160Z,71.51
2023-03-06T17:25:21.700Z,71.04
2023-03-06T17:28:24.309Z,71.62
2023-03-06T17:31:28.328Z,72.35
2023-03-06T17:34:31.241Z,71.85
2023-03-06T17:37:33.884Z,71.75
2023-03-06T17:40:36.476Z,72.51
2023-03-06T17:43:39.571Z,71.36
2023-03-06T17:46:43.504Z,71.26
2023-03-06T17:49:46.393Z,72.78
2023-03-06T17:52:49.274Z,71.34
2023-03-06T17:55:52.406Z,71.40
2023-03-06T17:58:55.496Z,71.81
2023-03-06T18:02:00.987Z,71.67
2023-03-06T18:05:04.313Z,71.85
2023-03-06T18:08:10.232Z,72.62
2023-03-06T18:11:14.077Z,72.43
2023-03-06T18:14:16.911Z,73.15
2023-03-06T18:17:20.511Z,72.98
2023-03-06T18:20:23.534Z,72.42
2023-03-06T18:23:27.073Z,72.71
2023-03-06T18:26:30.241Z,73.29
2023-03-06T18:29:33.134Z,73.55
2023-03-06T18:32:35.987Z,73.30
2023-03-06T18:35:38.497Z,74.26
2023-03-06T18:38:44.004Z,74.87
2023-03-06T18:41:46.838Z,74.89
2023-03-06T18:44:49.660Z,75.52
2023-03-06T18:47:52.526Z,75.75
2023-03-06T18:50:55.114Z,75.88
2023-03-06T18:53:59.115Z,77.16
2023-03-06T18:57:02.016Z,76.76
2023-03-06T19:00:06.416Z,77.77
2023-03-06T19:03:10.421Z,78.93
2023-03-06T19:06:15.457Z,78.26
2023-03-06T19:09:18.824Z,78.04
2023-03-06T19:12:21.789Z,79.03
2023-03-06T19:15:24.273Z,79.06
2023-03-06T19:18:28.352Z,79.22
2023-03-06T19:21:31.583Z,80.31
2023-03-06T19:24:34.639Z,80.10
2023-03-06T19:27:39.211Z,80.16
2023-03-06T19:30:41.940Z,79.67
2023-03-06T19:33:45.057Z,80.88
2023-03-06T19:36:50.140Z,80.79
2023-03-06T19:39:52.546Z,81.13
2023-03-06T19:42:55.686Z,81.88
2023-03-06T19:45:58.633Z,82.09
2023-03-06T19:49:10.030Z,82.30
2023-03-06T19:52:12.818Z,82.02
2023-03-06T19:55:15.713Z,82.63
2023-03-06T19:58:19.100Z,82.63
2023-03-06T20:01:24.932Z,83.31
2023-03-06T20:04:32.375Z,84.09
2023-03-06T20:07:35.624Z,84.60
2023-03-06T20:10:38.514Z,84.70
2023-03-06T20:13:47.237Z,85.16
2023-03-06T20:16:50.898Z,85.25
2023-03-06T20:19:54.071Z,85.35
2023-03-06T20:22:56.791Z,85.40
2023-03-06T20:26:05.115Z,85.16
2023-03-06T20:29:09.530Z,84.86
2023-03-06T20:32:13.477Z,84.76
2023-03-06T20:35:16.477Z,84.57
2023-03-06T20:38:19.304Z,84.49
2023-03-06T20:41:27.156Z,82.87
2023-03-06T20:44:30.073Z,83.10
2023-03-06T20:47:32.857Z,82.36
2023-03-06T20:50:35.595Z,82.79
2023-03-06T20:53:38.355Z,82.61
2023-03-06T20:56:42.688Z,84.06
2023-03-06T20:59:45.819Z,84.81
2023-03-06T21:02:48.516Z,84.73
2023-03-06T21:05:51.373Z,85.59
2023-03-06T21:08:55.858Z,85.44
2023-03-06T21:11:58.399Z,86.15
2023-03-06T21:15:01.018Z,85.57
2023-03-06T21:18:03.870Z,86.03
2023-03-06T21:21:09.828Z,86.58
2023-03-06T21:24:12.688Z,86.90
2023-03-06T21:27:15.410Z,87.05
2023-03-06T21:30:18.317Z,87.61
2023-03-06T21:33:21.246Z,87.34
2023-03-06T21:36:24.030Z,87.37
2023-03-06T21:39:26.922Z,86.60
2023-03-06T21:42:29.823Z,85.94
2023-03-06T21:45:32.569Z,85.06
2023-03-06T21:48:35.658Z,85.04
2023-03-06T21:51:38.615Z,85.18
2023-03-06T21:54:41.782Z,85.49
2023-03-06T21:57:49.323Z,85.37
2023-03-06T22:00:52.049Z,85.47
2023-03-06T22:03:58.579Z,85.75
2023-03-06T22:07:01.176Z,85.68
2023-03-06T22:10:05.664Z,86.24
2023-03-06T22:13:08.328Z,86.36
2023-03-06T22:16:12.067Z,86.23
2023-03-06T22:19:15.673Z,86.47
2023-03-06T22:22:18.329Z,86.63
2023-03-06T22:25:20.832Z,86.31
2023-03-06T22:28:23.730Z,86.07
2023-03-06T22:31:28.747Z,86.69
2023-03-06T22:34:31.856Z,86.47
2023-03-06T22:37:34.346Z,85.97
2023-03-06T22:40:38.137Z,85.30
2023-03-06T22:43:42.211Z,85.29
2023-03-06T22:46:45.921Z,85.64
2023-03-06T22:49:48.463Z,85.91
2023-03-06T22:52:50.942Z,85.56
2023-03-06T22:55:53.485Z,86.12
2023-03-06T22:58:57.888Z,85.42
2023-03-06T23:02:00.427Z,84.11
2023-03-06T23:05:03.796Z,84.46
2023-03-06T23:08:06.242Z,84.85
2023-03-06T23:11:11.092Z,85.14
2023-03-06T23:14:32.839Z,85.06
2023-03-06T23:17:54.296Z,85.75
2023-03-06T23:21:18.466Z,86.21
2023-03-06T23:24:39.298Z,86.37
2023-03-06T23:27:41.912Z,85.97
2023-03-06T23:30:44.887Z,86.40
2023-03-06T23:33:48.112Z,86.92
2023-03-06T23:36:51.606Z,87.33
2023-03-06T23:39:55.796Z,87.35
2023-03-06T23:42:58.481Z,87.40
2023-03-06T23:46:01.677Z,87.13
2023-03-06T23:49:04.844Z,87.23
2023-03-06T23:52:07.409Z,87.68
2023-03-06T23:55:10.392Z,87.69
2023-03-06T23:58:13.739Z,87.59
